Weather observations for the past three days for
Elbert Mountain - Monument Pass
Metric (Imperial)
Date Time (mdt) Wind (kph) Vis. (km) Weather Sky Cond. Temperature (ºC) Relative Humidity Wind Chill (°C) Heat Index (°C) Pressure Precipitation (cm)
Air Dwpt 6 hour altimeter (cm) sea level (mb) 1 hr 3 hr 6 hr
Max. Min.
29 12:35 S 31 G 39 16.09 Fair CLR 22 6 36% 76.58 0.0
29 12:15 S 24 16.09 Fair CLR 22 5 33% 76.61 0.0
29 11:55 SE 30 G 39 16.09 Fair CLR 22 5 33% 76.63 0.0
29 11:35 S 31 G 41 16.09 Fair CLR 22 4 31% 76.63 0.0
29 11:15 S 26 16.09 Fair CLR 22 5 33% 76.66 0.0
29 10:55 S 30 G 41 16.09 Fair CLR 21 4 33% 76.66 0.0
29 10:35 S 39 G 46 16.09 Fair and Breezy CLR 21 5 35% 76.68 0.0
29 10:15 S 35 G 46 16.09 Fair and Breezy CLR 20 4 35% 76.68 0.0
29 09:55 S 35 G 52 16.09 Fair and Breezy CLR 20 3 33% 76.71 0.0
29 09:35 S 39 G 50 16.09 Fair and Breezy CLR 20 4 35% 76.71 0.0
29 09:15 S 31 G 50 16.09 Fair CLR 19 3 35% 76.73 0.0
29 08:55 S 33 G 41 16.09 Fair and Breezy CLR 19 4 37% 76.76 0.0
29 08:35 S 31 G 37 16.09 Fair CLR 18 4 40% 76.76 0.0
29 08:15 S 26 16.09 Fair CLR 17 4 42% 76.78 0.0
29 07:55 S 22 G 33 16.09 Fair CLR 16 5 48% 76.81 0.0
29 07:35 S 17 16.09 Fair CLR 13 7 67% 76.81 0.0
29 07:15 S 15 16.09 Fair CLR 12 6 67% 76.81 0.0
29 06:55 SW 17 16.09 Fair CLR 10 6 76% 8 76.84 0.0
29 06:35 SW 17 16.09 Fair CLR 8 5 82% 6 76.84 0.0
29 06:15 SW 19 16.09 Fair CLR 7 5 87% 4 76.84 0.0
29 05:55 SW 13 16.09 Fair CLR 7 5 87% 5 76.84 0.0
29 05:35 S 19 16.09 Fair CLR 7 5 87% 4 76.84 0.0
29 05:15 S 19 16.09 Fair CLR 7 6 93% 4 76.86 0.0
29 04:55 S 19 16.09 Fair CLR 7 6 93% 4 76.86 0.0
29 04:35 S 17 16.09 Fair CLR 7 6 93% 4 76.86 0.0
29 04:15 S 13 16.09 Fair CLR 7 7 100% 5 76.89 0.0
29 03:55 S 17 16.09 Fair CLR 7 6 93% 4 76.89 0.0
29 03:35 S 24 16.09 Fair CLR 7 7 100% 4 76.89 0.0
29 03:15 S 20 16.09 Fair CLR 7 6 93% 4 76.91 0.0
29 02:55 S 24 16.09 Fair CLR 8 6 87% 5 76.94 0.0
29 02:35 S 24 G 37 16.09 Partly Cloudy SCT009 8 7 93% 5 76.94 0.0
29 02:15 S 28 G 39 16.09 Mostly Cloudy BKN009 8 7 93% 4 76.96 0.0
29 01:55 S 30 G 35 16.09 Mostly Cloudy BKN009 8 7 93% 4 77.01 0.0
29 01:35 S 20 16.09 Partly Cloudy SCT011 8 7 93% 5 77.04 0.0
29 01:15 S 31 G 39 16.09 Mostly Cloudy BKN011 8 7 93% 4 77.04 0.0
29 00:55 S 28 G 44 16.09 Partly Cloudy SCT011 8 7 93% 4 77.04 0.0
29 00:35 S 26 G 48 16.09 Fair CLR 8 7 93% 5 77.09 0.0
29 00:15 S 30 G 41 16.09 Thunderstorm in Vicinity CLR 9 6 82% 6 77.04 0.0
28 23:55 S 33 G 41 16.09 Fair and Breezy CLR 9 6 82% 5 77.04 0.0
28 23:35 S 31 G 44 16.09 Fair CLR 10 6 76% 7 77.04 0.0
28 23:15 S 33 G 48 16.09 Fair and Breezy CLR 10 6 76% 7 77.01 0.0
28 22:55 S 31 G 39 16.09 Fair CLR 10 6 76% 7 77.01 0.0
28 22:35 S 28 G 37 16.09 Partly Cloudy SCT100 SCT120 11 6 72% 77.01 0.0
28 22:15 S 26 G 39 16.09 Mostly Cloudy BKN100 11 6 72% 77.01 0.0
28 21:55 S 22 16.09 Mostly Cloudy BKN100 12 6 67% 77.01 0.0
28 21:35 S 13 16.09 Partly Cloudy SCT110 12 5 63% 76.94 0.0
28 21:15 S 6 16.09 Partly Cloudy SCT120 12 6 67% 76.94 0.0
28 20:55 S 13 16.09 Partly Cloudy SCT110 13 6 63% 76.89 0.0
28 20:35 S 9 16.09 Mostly Cloudy BKN110 13 6 63% 76.89 0.0
28 20:15 S 9 16.09 Mostly Cloudy BKN120 13 6 63% 76.89 0.0
28 19:55 SE 9 16.09 Partly Cloudy SCT120 15 7 59% 76.86 0.0
28 19:35 Calm 16.09 Fair CLR 16 5 48% 76.84 0.0
28 19:15 SW 7 16.09 Fair CLR 16 6 52% 76.84 0.0
28 18:55 SW 11 16.09 Fair CLR 16 5 48% 76.84 0.0
28 18:35 SW 20 16.09 Fair CLR 17 5 45% 76.84 0.0
28 18:15 SW 19 16.09 Thunderstorm in Vicinity CLR 18 4 40% 76.84 0.0
28 17:55 SW 9 16.09 Fair CLR 18 5 43% 76.86 0.0
28 17:35 Calm 16.09 Partly Cloudy SCT120 17 3 39% 76.89 0.0
28 17:15 E 11 16.09 Partly Cloudy SCT120 17 5 45% 76.96 0.0
28 16:55 E 7 16.09 Partly Cloudy SCT048 15 6 55% 76.96 0.0 0.1
28 16:35 E 30 G 43 6.44 Light Rain SCT016 SCT023 OVC050 12 6 67% 76.94 0.0 0.1
28 16:15 SW 11 G 43 8.05 Thunderstorm Rain BKN050 OVC080 12 5 63% 77.14 0.0 0.05
28 15:55 W 35 G 48 16.09 Thunderstorm and Breezy BKN075 OVC090 15 5 51% 77.06 0.0
28 15:35 E 6 16.09 Overcast SCT090 OVC110 16 5 48% 77.01 0.0
28 15:15 E 13 16.09 Thunderstorm in Vicinity BKN110 16 6 52% 77.01 0.0
28 14:55 SE 11 G 28 16.09 Partly Cloudy SCT120 16 6 52% 77.01 0.0 0.1
28 14:35 SE 24 G 33 16.09 Partly Cloudy SCT060 SCT070 SCT090 17 6 49% 77.01 0.0 0.1
28 14:15 E 6 G 19 8.05 Thunderstorm Heavy Rain in Vicinity SCT038 BKN070 OVC080 13 5 59% 77.06 0.0 0.08
28 13:55 S 41 G 56 16.09 Mostly Cloudy and Breezy SCT080 BKN110 18 2 34% 77.01 0.0
28 13:35 NE 13 16.09 Partly Cloudy SCT110 18 2 34% 76.99 0.0
28 13:15 NE 15 G 28 16.09 Fair CLR 21 2 29% 76.99 0.0
28 12:55 NE 15 G 28 16.09 Fair CLR 21 3 31% 77.01 0.0
28 12:35 NE 19 G 26 16.09 Fair CLR 21 2 29% 77.01 0.0
28 12:15 NE 11 16.09 Fair CLR 20 1 28% 77.04 0.0
28 11:55 NE 13 16.09 Fair CLR 21 3 31% 77.04 0.0
28 11:35 N 15 16.09 Fair CLR 20 3 33% 77.04 0.0
28 11:15 N 11 16.09 Fair CLR 19 2 32% 77.04 0.0
28 10:55 N 9 16.09 Fair CLR 18 2 34% 77.04 0.0
28 10:35 NW 9 16.09 Fair CLR 18 3 37% 77.04 0.0
28 10:15 NW 9 16.09 Fair CLR 16 3 42% 77.04 0.0
28 09:55 NW 7 16.09 Fair CLR 16 3 42% 77.06 0.0
28 09:35 NW 11 16.09 Fair CLR 15 3 45% 77.06 0.0
28 09:15 NW 13 16.09 Fair CLR 14 2 44% 77.06 0.0
28 08:55 W 15 16.09 Fair CLR 13 2 47% 77.09 0.0
28 08:35 NW 15 16.09 Fair CLR 12 2 51% 77.06 0.0
28 08:15 NW 19 16.09 Fair CLR 12 2 51% 77.09 0.0
28 07:55 NW 20 G 26 16.09 Fair CLR 11 2 54% 77.06 0.0
28 07:35 W 15 16.09 Fair CLR 10 2 58% 8 77.06 0.0
28 07:15 W 15 16.09 Fair CLR 8 2 66% 6 77.06 0.0
28 06:55 W 11 16.09 Fair CLR 7 2 71% 5 77.06 0.0
28 06:35 W 15 16.09 Fair CLR 6 2 76% 3 77.04 0.0
28 06:15 W 17 16.09 Fair CLR 5 1 76% 2 77.04 0.0
28 05:55 W 17 16.09 Fair CLR 5 1 76% 2 77.04 0.0
28 05:35 W 13 16.09 Fair CLR 4 1 81% 1 77.06 0.0
28 05:15 W 6 16.09 Fair CLR 5 1 76% 77.04 0.0
28 04:55 W 15 16.09 Fair CLR 4 0 75% 1 77.04 0.0
28 04:35 W 15 16.09 Fair CLR 5 0 70% 2 77.04 0.0
28 04:15 W 11 16.09 Fair CLR 5 0 70% 3 77.04 0.0
28 03:55 SW 13 16.09 Fair CLR 6 0 66% 4 77.06 0.0
28 03:35 Calm 16.09 Fair CLR 8 1 62% 77.04 0.0
28 03:15 Calm 16.09 Fair CLR 6 0 66% 77.06 0.0
28 02:55 NW 6 16.09 Fair CLR 6 0 66% 77.06 0.0
28 02:35 NW 6 16.09 Fair CLR 6 0 66% 77.06 0.0
28 02:15 N 13 16.09 Fair CLR 6 0 66% 4 77.06 0.0
28 01:55 S 11 16.09 Fair CLR 6 0 66% 4 77.04 0.0
28 01:35 S 19 16.09 Partly Cloudy SCT100 7 0 61% 4 77.01 0.0
28 01:15 S 15 16.09 Fair CLR 9 0 54% 7 77.04 0.0
28 00:55 S 15 16.09 Fair CLR 8 0 57% 6 77.04 0.0
28 00:35 SE 15 16.09 Partly Cloudy SCT100 8 0 57% 6 77.04 0.0
28 00:15 SE 17 16.09 Fair CLR 10 -1 47% 8 77.04 0.0
27 23:55 S 17 16.09 Fair CLR 10 -1 47% 8 77.04 0.0
27 23:35 S 19 16.09 Fair CLR 10 -1 47% 8 77.04 0.0
27 23:15 SE 15 16.09 Fair CLR 11 -1 44% 77.01 0.0
27 22:55 SE 15 16.09 Fair CLR 10 0 50% 8 77.01 0.0
27 22:35 SE 7 16.09 Fair CLR 11 0 47% 77.01 0.0
27 22:15 SE 11 16.09 Fair CLR 11 0 47% 77.01 0.0
27 21:55 SE 13 16.09 Fair CLR 12 0 44% 77.01 0.0
27 21:35 SE 11 16.09 Fair CLR 12 0 44% 76.99 0.0
27 21:15 SE 11 16.09 Partly Cloudy SCT110 12 0 44% 76.96 0.0
27 20:55 E 13 16.09 Partly Cloudy SCT110 13 0 41% 76.96 0.0
27 20:35 E 11 16.09 Partly Cloudy SCT110 13 0 41% 76.94 0.0
27 20:15 E 6 16.09 Fair CLR 14 1 41% 76.94 0.0
27 19:55 NE 11 16.09 Partly Cloudy SCT100 14 1 41% 76.91 0.0
27 19:35 NE 7 16.09 Mostly Cloudy SCT080 BKN100 17 0 32% 76.89 0.0
27 19:15 E 9 16.09 Mostly Cloudy BKN100 17 0 32% 76.86 0.0
27 18:55 Calm 16.09 Fair CLR 17 0 32% 76.84 0.0
27 18:35 SE 9 16.09 Partly Cloudy SCT110 19 0 28% 76.84 0.0
27 18:15 SE 9 16.09 Fair CLR 18 0 30% 76.84 0.0
27 17:55 SE 20 16.09 Partly Cloudy SCT110 20 0 26% 76.81 0.0
27 17:35 SE 13 16.09 Partly Cloudy SCT090 SCT120 20 0 26% 76.84 0.0
27 17:15 E 17 16.09 Mostly Cloudy SCT080 BKN100 21 0 25% 76.81 0.0
27 16:55 SE 17 G 28 16.09 Partly Cloudy SCT110 20 0 26% 76.81 0.0
27 16:35 SE 7 G 31 16.09 Fair CLR 20 0 26% 76.81 0.0
27 16:15 SE 15 16.09 Fair CLR 21 0 25% 76.81 0.0
27 15:55 E 17 G 26 16.09 Fair CLR 20 0 26% 76.81 0.0
27 15:35 SE 13 16.09 Fair CLR 20 0 26% 76.81 0.0
27 15:15 SE 9 16.09 Fair CLR 20 0 26% 76.84 0.0
27 14:55 SE 11 16.09 Fair CLR 20 0 26% 76.84 0.0
27 14:35 E 9 16.09 Fair CLR 19 0 28% 76.84 0.0
27 14:15 E 15 16.09 Fair CLR 19 0 28% 76.84 0.0
27 13:55 E 19 G 26 16.09 Fair CLR 19 1 30% 76.84 0.0
27 13:35 E 17 16.09 Fair CLR 18 0 30% 76.86 0.0
27 13:15 Calm 16.09 Partly Cloudy SCT075 18 0 30% 76.89 0.0
27 12:55 E 7 16.09 Partly Cloudy SCT075 18 1 32% 76.89 0.0
27 12:35 E 13 G 30 16.09 Fair CLR 17 0 32% 76.91 0.0
27 12:15 E 9 16.09 Fair CLR 17 0 32% 76.94 0.0
27 11:55 NE 9 16.09 Fair CLR 17 0 32% 76.94 0.0
27 11:35 Calm 16.09 Fair CLR 16 0 34% 76.96 0.0
27 11:15 NE 9 16.09 Fair CLR 16 0 34% 76.96 0.0
27 10:55 NE 7 16.09 Fair CLR 16 0 34% 76.96 0.0
27 10:35 E 13 16.09 Fair CLR 15 0 36% 76.96 0.0
27 10:15 NE 13 16.09 Fair CLR 15 0 36% 76.96 0.0
27 09:55 NE 9 16.09 Fair CLR 15 0 36% 76.96 0.0
27 09:35 NE 13 16.09 Fair CLR 15 0 36% 76.94 0.0
27 09:15 NE 7 16.09 Fair CLR 15 0 36% 76.94 0.0
27 08:55 E 11 16.09 Fair CLR 14 0 39% 76.94 0.0
27 08:35 NE 9 16.09 Fair CLR 13 0 41% 76.91 0.0
27 08:15 E 9 16.09 Fair CLR 13 0 41% 76.91 0.0
27 07:55 NE 6 16.09 Fair CLR 12 0 44% 76.89 0.0
27 07:35 Calm 16.09 Fair CLR 10 0 50% 76.89 0.0
27 07:15 NE 9 16.09 Fair CLR 10 0 50% 9 76.89 0.0
27 06:55 SW 9 16.09 Fair CLR 8 0 57% 7 76.84 0.0
27 06:35 SW 11 16.09 Fair CLR 6 -1 61% 4 76.84 0.0
27 06:15 S 13 16.09 Fair CLR 5 -1 66% 2 76.81 0.0
27 05:55 SW 13 16.09 Fair CLR 6 -2 57% 4 76.78 0.0
27 05:35 SW 15 16.09 Fair CLR 7 -2 53% 5 76.76 0.0
27 05:15 SW 13 16.09 Fair CLR 7 -2 53% 5 76.76 0.0
27 04:55 SW 17 16.09 Fair CLR 7 -2 53% 4 76.73 0.0
27 04:35 S 15 16.09 Fair CLR 4 -1 70% 1 76.73 0.0
27 04:15 S 13 16.09 Fair CLR 3 -2 70% 0 76.71 0.0
27 03:55 S 7 16.09 Fair CLR 5 -2 61% 4 76.71 0.0
27 03:35 W 9 16.09 Fair CLR 6 -2 57% 4 76.71 0.0
27 03:15 W 7 16.09 Fair CLR 8 -2 50% 7 76.71 0.0
27 02:55 SW 9 16.09 Fair CLR 7 -3 49% 5 76.71 0.0
27 02:35 NW 9 16.09 Fair CLR 7 -3 49% 5 76.68 0.0
27 02:15 SW 13 16.09 Fair CLR 7 -2 53% 5 76.68 0.0
27 01:55 S 9 16.09 Fair CLR 6 -2 57% 4 76.68 0.0
27 01:35 S 9 16.09 Fair CLR 5 -2 61% 3 76.68 0.0
27 01:15 W 11 16.09 Fair CLR 6 -2 57% 4 76.68 0.0
27 00:55 W 7 16.09 Fair CLR 6 -2 57% 5 76.68 0.0
27 00:35 W 13 16.09 Fair CLR 6 -2 57% 4 76.68 0.0
27 00:15 W 9 16.09 Fair CLR 6 -2 57% 4 76.68 0.0
26 23:55 SW 7 16.09 Fair CLR 6 -2 57% 5 76.68 0.0
26 23:35 W 13 16.09 Fair CLR 7 -2 53% 5 76.68 0.0
26 23:15 W 7 16.09 Fair CLR 8 -2 50% 7 76.68 0.0
26 22:55 W 6 16.09 Fair CLR 9 -3 43% 76.68 0.0
26 22:35 Calm 16.09 Fair CLR 8 -2 50% 76.68 0.0
26 22:15 Calm 16.09 Fair CLR 9 -3 43% 76.66 0.0
26 21:55 SW 7 16.09 Partly Cloudy SCT095 10 -2 43% 9 76.63 0.0
26 21:35 W 11 16.09 Partly Cloudy SCT095 9 -2 46% 8 76.61 0.0
26 21:15 SW 6 16.09 Fair CLR 8 -2 50% 76.58 0.0
26 20:55 W 15 16.09 Fair CLR 10 -2 43% 8 76.56 0.0
26 20:35 W 9 16.09 Fair CLR 11 -2 41% 76.53 0.0
26 20:15 NW 17 16.09 Fair CLR 12 -2 38% 76.5 0.0
26 19:55 NW 17 16.09 Fair CLR 13 -3 33% 76.5 0.0
26 19:35 NW 13 G 30 16.09 Fair CLR 15 -3 29% 76.45 0.0
26 19:15 W 28 G 33 16.09 Fair CLR 16 -2 29% 76.43 0.0
26 18:55 NW 24 16.09 Fair CLR 16 -3 27% 76.43 0.0
26 18:35 W 28 16.09 Fair CLR 17 -4 24% 76.43 0.0
26 18:15 W 28 G 39 16.09 Fair CLR 17 -3 25% 76.4 0.0
26 17:55 NW 24 16.09 Fair CLR 17 -5 22% 76.4 0.0
26 17:35 NW 19 G 30 16.09 Fair CLR 17 -2 27% 76.4 0.0
26 17:15 NW 20 G 26 16.09 Fair CLR 17 -1 30% 76.38 0.0
26 16:55 N 19 G 26 16.09 Fair CLR 17 -2 27% 76.38 0.0
26 16:35 NW 20 G 35 16.09 Fair CLR 17 -2 27% 76.38 0.0
26 16:15 NW 20 G 31 16.09 Fair CLR 17 -1 30% 76.35 0.0
26 15:55 NW 17 G 35 16.09 Partly Cloudy SCT090 17 -2 27% 76.35 0.0
26 15:35 W 19 G 35 16.09 Partly Cloudy SCT090 18 -2 26% 76.35 0.0
26 15:15 W 22 G 35 16.09 Partly Cloudy SCT090 18 -1 28% 76.33 0.0
26 14:55 NW 17 G 33 16.09 Fair CLR 18 -1 28% 76.33 0.0
26 14:35 W 9 G 28 16.09 Fair CLR 17 -2 27% 76.33 0.0
26 14:15 NW 19 G 33 16.09 Fair CLR 17 -1 30% 76.33 0.0
26 13:55 NW 15 16.09 Fair CLR 16 -2 29% 76.33 0.0
26 13:35 N 6 16.09 Fair CLR 16 -3 27% 76.33 0.0
26 13:15 N 15 G 28 16.09 Fair CLR 16 -1 31% 76.3 0.0
26 12:55 NW 20 G 30 16.09 Fair CLR 15 -2 31% 76.3 0.0
Date Time (mdt) Wind (kph) Vis. (km) Weather Sky Cond. Air Dwpt Max. Min. Relative Humidity Wind Chill (°C) Heat Index (°C) altimeter (cm) sea level (mb) 1 hr 3 hr 6 hr
6 hour
Temperature (ºC) Pressure Precipitation (cm)